Time;durP1;ratioP1;P1;durP2;ratioP2;P2;SDS_P1;SDS_P2;PMS_P1;PMS_P2;Temp;Humidity;BMP_temperature;BMP_pressure;BME280_temperature;BME280_humidity;BME280_pressure;Samples;Min_cycle;Max_cycle;Signal;HPM_P1;HPM_P2
2023/01/19 00:01:36;;;;;;;8.05;2.50;;;2.70;99.90;;;;;;5030813;28;20102;-87
2023/01/19 00:04:02;;;;;;;5.80;2.30;;;2.70;99.90;;;;;;5030178;28;20052;-87
2023/01/19 00:06:27;;;;;;;4.25;2.30;;;2.80;99.90;;;;;;5047018;28;20049;-86
2023/01/19 00:08:53;;;;;;;5.88;2.40;;;2.70;99.90;;;;;;5028891;28;20048;-87
2023/01/19 00:11:19;;;;;;;4.88;2.45;;;2.80;99.90;;;;;;5041911;28;20043;-86
2023/01/19 00:13:50;;;;;;;10.02;2.53;;;2.80;99.90;;;;;;5048298;28;20033;-87
2023/01/19 00:16:18;;;;;;;5.35;2.25;;;2.90;99.90;;;;;;5046773;28;20033;-86
2023/01/19 00:18:44;;;;;;;8.93;2.30;;;2.90;99.90;;;;;;5045677;28;20079;-86
2023/01/19 00:21:10;;;;;;;6.90;2.00;;;3.00;99.90;;;;;;5029791;28;20152;-86
2023/01/19 00:23:36;;;;;;;4.03;2.05;;;3.00;99.90;;;;;;5030721;28;20556;-87
2023/01/19 00:26:02;;;;;;;7.70;2.13;;;3.10;99.90;;;;;;5029635;28;20123;-85
2023/01/19 00:28:27;;;;;;;6.75;2.17;;;3.00;99.90;;;;;;5047218;28;20069;-87
2023/01/19 00:30:53;;;;;;;7.97;2.38;;;3.00;99.90;;;;;;5029128;28;20071;-86
2023/01/19 00:33:18;;;;;;;6.22;2.20;;;3.00;99.90;;;;;;5046153;28;20048;-87
2023/01/19 00:35:49;;;;;;;5.82;2.30;;;2.90;99.90;;;;;;5029866;28;20045;-87
2023/01/19 00:38:14;;;;;;;4.75;1.83;;;2.90;99.90;;;;;;5026015;28;20051;-86
2023/01/19 00:40:40;;;;;;;7.18;2.28;;;2.90;99.90;;;;;;5029363;28;20049;-87
2023/01/19 00:43:06;;;;;;;5.63;2.17;;;2.80;99.90;;;;;;5045632;28;20041;-86
2023/01/19 00:45:32;;;;;;;6.07;2.10;;;2.80;99.90;;;;;;5043742;28;20049;-87
2023/01/19 00:47:58;;;;;;;5.32;2.47;;;2.90;99.90;;;;;;5047540;28;20041;-86
2023/01/19 00:50:25;;;;;;;8.57;2.33;;;2.90;99.90;;;;;;5044871;28;20412;-86
2023/01/19 00:52:52;;;;;;;4.05;2.63;;;2.90;99.90;;;;;;5047161;28;20045;-86
2023/01/19 00:55:17;;;;;;;9.45;2.45;;;2.90;99.90;;;;;;5028231;28;20063;-87
2023/01/19 00:57:43;;;;;;;7.78;2.15;;;2.80;99.90;;;;;;5028144;28;20041;-86
2023/01/19 01:00:12;;;;;;;8.45;2.55;;;2.90;99.90;;;;;;5030080;28;20037;-86
2023/01/19 01:02:39;;;;;;;3.85;2.00;;;2.80;99.90;;;;;;5046010;28;20505;-87
2023/01/19 01:05:05;;;;;;;6.90;2.10;;;2.80;99.90;;;;;;5042310;28;20060;-87
2023/01/19 01:07:39;;;;;;;6.15;2.17;;;2.90;99.90;;;;;;5044054;28;20128;-86
2023/01/19 01:10:10;;;;;;;5.30;2.20;;;3.00;99.90;;;;;;5026890;28;20500;-86
2023/01/19 01:12:36;;;;;;;8.00;2.30;;;3.00;99.90;;;;;;5029269;28;20037;-87
2023/01/19 01:15:07;;;;;;;8.35;2.30;;;3.10;99.90;;;;;;5028239;28;20036;-87
2023/01/19 01:17:32;;;;;;;4.80;2.15;;;3.20;99.90;;;;;;5045486;28;20048;-87
2023/01/19 01:19:58;;;;;;;5.53;2.30;;;3.10;99.90;;;;;;5029200;28;20037;-87
2023/01/19 01:22:24;;;;;;;8.77;2.53;;;3.20;99.90;;;;;;5027754;28;20124;-86
2023/01/19 01:24:50;;;;;;;9.13;2.65;;;3.20;99.90;;;;;;5029861;28;20076;-86
2023/01/19 01:27:15;;;;;;;8.98;2.28;;;3.30;99.90;;;;;;5028377;28;20726;-87
2023/01/19 01:29:47;;;;;;;6.25;2.50;;;3.20;99.90;;;;;;5045846;28;20983;-87
2023/01/19 01:32:13;;;;;;;5.85;2.28;;;3.30;99.90;;;;;;5028909;28;20064;-86
2023/01/19 01:34:39;;;;;;;8.27;2.78;;;3.40;99.90;;;;;;5028643;28;20125;-86
2023/01/19 01:37:07;;;;;;;8.75;2.40;;;3.40;99.90;;;;;;5026727;28;20159;-86
2023/01/19 01:39:36;;;;;;;7.15;2.20;;;3.40;99.90;;;;;;5045018;28;20114;-87
2023/01/19 01:42:02;;;;;;;9.20;2.33;;;3.40;99.90;;;;;;5027077;28;20064;-86
2023/01/19 01:44:52;;;;;;;10.18;2.72;;;3.50;99.90;;;;;;5029386;28;20044;-87
2023/01/19 01:47:25;;;;;;;7.63;2.65;;;3.50;99.90;;;;;;5028191;28;20049;-87
2023/01/19 01:50:03;;;;;;;7.57;2.70;;;3.50;99.90;;;;;;5043866;28;20099;-86
2023/01/19 01:52:33;;;;;;;8.75;3.15;;;3.50;99.90;;;;;;5027008;28;20124;-87
2023/01/19 01:54:59;;;;;;;8.98;3.72;;;3.50;99.90;;;;;;5026977;28;20405;-87
2023/01/19 01:57:26;;;;;;;10.68;3.53;;;3.50;99.90;;;;;;5029001;28;20470;-86
2023/01/19 01:59:54;;;;;;;10.10;4.57;;;3.50;99.90;;;;;;5045118;28;20064;-87
2023/01/19 02:05:11;;;;;;;11.85;5.07;;;3.50;99.90;;;;;;5043272;28;20132;-87
2023/01/19 02:13:22;;;;;;;;;;;3.40;99.90;;;;;;5045008;28;20056;-86
2023/01/19 02:15:53;;;;;;;10.05;4.97;;;3.40;99.90;;;;;;5027722;28;19931;-86
2023/01/19 02:18:21;;;;;;;10.50;5.18;;;3.30;99.90;;;;;;5044934;28;20051;-86
2023/01/19 02:21:06;;;;;;;10.63;4.90;;;3.30;99.90;;;;;;5044200;28;20036;-86
2023/01/19 02:23:44;;;;;;;11.27;5.60;;;3.30;99.90;;;;;;5043855;28;20119;-86
2023/01/19 02:26:15;;;;;;;12.75;5.85;;;3.20;99.90;;;;;;5027615;28;20052;-86
2023/01/19 02:28:47;;;;;;;12.23;5.65;;;3.20;99.90;;;;;;5027540;28;20037;-86
2023/01/19 02:31:14;;;;;;;12.32;5.45;;;3.20;99.90;;;;;;5027359;28;20044;-86
2023/01/19 02:33:40;;;;;;;13.70;5.15;;;3.20;99.90;;;;;;5027016;28;20060;-86
2023/01/19 02:36:07;;;;;;;12.73;5.90;;;3.20;99.90;;;;;;5060508;28;20044;-86
2023/01/19 02:38:33;;;;;;;8.25;4.57;;;3.20;99.90;;;;;;5025159;28;20068;-86
2023/01/19 02:41:01;;;;;;;9.38;4.82;;;3.20;99.90;;;;;;5027149;28;20041;-86
2023/01/19 02:43:28;;;;;;;10.38;4.72;;;3.20;99.90;;;;;;5027554;28;20103;-86
2023/01/19 02:45:55;;;;;;;9.77;5.05;;;3.20;99.90;;;;;;5027425;28;20044;-86
2023/01/19 02:48:20;;;;;;;10.40;4.63;;;3.20;99.90;;;;;;5028148;28;20045;-87
2023/01/19 02:50:56;;;;;;;10.35;4.72;;;3.20;99.90;;;;;;5044310;28;20063;-86
2023/01/19 02:53:32;;;;;;;12.60;4.40;;;3.20;99.90;;;;;;5026453;28;20098;-87
2023/01/19 02:56:27;;;;;;;13.40;5.07;;;3.20;99.90;;;;;;5028468;28;20446;-86
2023/01/19 02:59:11;;;;;;;10.68;4.82;;;3.20;99.90;;;;;;5024693;28;20045;-87
2023/01/19 03:02:03;;;;;;;10.52;4.45;;;3.20;99.90;;;;;;5028083;28;20460;-87
2023/01/19 03:05:02;;;;;;;9.98;3.90;;;3.10;99.90;;;;;;5025691;28;20045;-87
2023/01/19 03:07:56;;;;;;;12.05;4.43;;;3.10;99.90;;;;;;5028027;28;20041;-87
2023/01/19 03:10:21;;;;;;;11.05;4.50;;;3.10;99.90;;;;;;5027280;28;20040;-87
2023/01/19 03:12:51;;;;;;;9.95;4.53;;;3.20;99.90;;;;;;5026401;28;20044;-87
2023/01/19 03:15:26;;;;;;;10.05;4.55;;;3.10;99.90;;;;;;5027739;28;20076;-87
2023/01/19 03:17:53;;;;;;;10.07;4.63;;;3.10;99.90;;;;;;5028185;28;20070;-87
2023/01/19 03:20:24;;;;;;;13.00;4.63;;;3.10;99.90;;;;;;5026834;28;20498;-88
2023/01/19 03:23:00;;;;;;;12.80;4.75;;;3.10;99.90;;;;;;5028188;28;20481;-87
2023/01/19 03:25:30;;;;;;;9.80;4.20;;;3.10;99.90;;;;;;5044328;28;20072;-87
2023/01/19 03:27:56;;;;;;;11.93;4.63;;;3.10;99.90;;;;;;5043639;28;20041;-88
2023/01/19 03:30:27;;;;;;;9.32;4.18;;;3.00;99.90;;;;;;5024553;28;20092;-88
2023/01/19 03:32:59;;;;;;;9.23;4.38;;;3.00;99.90;;;;;;5058565;28;20045;-87
2023/01/19 03:35:28;;;;;;;9.32;4.30;;;2.90;99.90;;;;;;5026722;28;20045;-87
2023/01/19 03:37:56;;;;;;;7.68;4.00;;;2.90;99.90;;;;;;5026709;28;20070;-87
2023/01/19 03:40:28;;;;;;;13.18;4.50;;;2.90;99.90;;;;;;5026014;28;20155;-87
2023/01/19 03:42:55;;;;;;;9.32;3.95;;;3.00;99.90;;;;;;5025694;28;20048;-87
2023/01/19 03:45:22;;;;;;;9.40;4.47;;;2.90;99.90;;;;;;5027673;28;20405;-87
2023/01/19 03:47:47;;;;;;;11.05;4.45;;;3.00;99.90;;;;;;5044213;28;20110;-87
2023/01/19 03:50:26;;;;;;;8.45;3.90;;;3.00;99.90;;;;;;5026878;28;20080;-87
2023/01/19 03:53:08;;;;;;;9.45;3.58;;;3.00;99.90;;;;;;5027336;28;20433;-87
2023/01/19 03:55:36;;;;;;;12.65;3.78;;;3.10;99.90;;;;;;5045932;28;20094;-87
2023/01/19 03:58:02;;;;;;;11.88;3.95;;;3.10;99.90;;;;;;5047092;28;20173;-87
2023/01/19 04:00:28;;;;;;;7.88;3.50;;;3.10;99.90;;;;;;5031400;28;20080;-87
2023/01/19 04:02:54;;;;;;;7.90;3.17;;;3.10;99.90;;;;;;5031055;28;20044;-87
2023/01/19 04:05:21;;;;;;;7.50;3.90;;;3.10;99.90;;;;;;5045127;28;20037;-88
2023/01/19 04:07:51;;;;;;;6.68;3.17;;;3.10;99.90;;;;;;5047576;28;20044;-87
2023/01/19 04:10:17;;;;;;;11.52;3.38;;;3.10;99.90;;;;;;5047598;28;20044;-87
2023/01/19 04:12:43;;;;;;;7.15;3.30;;;3.10;99.90;;;;;;5046159;28;20037;-87
2023/01/19 04:15:09;;;;;;;9.38;3.05;;;3.10;99.90;;;;;;5047204;28;20039;-86
2023/01/19 04:17:35;;;;;;;7.15;2.50;;;3.20;99.90;;;;;;5028887;28;20044;-87
2023/01/19 04:20:01;;;;;;;5.90;2.53;;;3.20;99.90;;;;;;5031144;28;20461;-87
2023/01/19 04:22:26;;;;;;;5.65;2.60;;;3.20;99.90;;;;;;5029751;28;20072;-87
2023/01/19 04:24:52;;;;;;;5.88;2.50;;;3.20;99.90;;;;;;5047044;28;20096;-87
2023/01/19 04:27:18;;;;;;;6.53;2.22;;;3.20;99.90;;;;;;5045716;28;20037;-87
2023/01/19 04:29:44;;;;;;;7.75;2.47;;;3.20;99.90;;;;;;5030047;28;20092;-87
2023/01/19 04:32:11;;;;;;;5.60;2.33;;;3.30;99.90;;;;;;5027224;28;20120;-88
2023/01/19 04:34:37;;;;;;;6.03;2.20;;;3.30;99.90;;;;;;5047146;28;20045;-87
2023/01/19 04:37:02;;;;;;;8.20;2.30;;;3.30;99.90;;;;;;5046312;28;20097;-87
2023/01/19 04:39:28;;;;;;;7.07;1.90;;;3.30;99.90;;;;;;5047139;28;20094;-87
2023/01/19 04:41:56;;;;;;;7.63;2.15;;;3.30;99.90;;;;;;5030333;28;20045;-87
2023/01/19 04:44:22;;;;;;;4.20;2.30;;;3.20;99.90;;;;;;5026999;28;20087;-87
2023/01/19 04:46:48;;;;;;;3.28;1.90;;;3.30;99.90;;;;;;5030123;28;20045;-88
2023/01/19 04:49:14;;;;;;;4.75;2.00;;;3.30;99.90;;;;;;5030220;28;20044;-87
2023/01/19 04:51:39;;;;;;;4.22;2.10;;;3.30;99.90;;;;;;5046890;28;20049;-87
2023/01/19 04:54:07;;;;;;;10.95;2.25;;;3.30;99.90;;;;;;5029004;28;20535;-87
2023/01/19 04:56:33;;;;;;;4.05;1.80;;;3.40;99.90;;;;;;5030096;28;20037;-87
2023/01/19 04:58:59;;;;;;;11.95;2.05;;;3.40;99.90;;;;;;5042792;28;20037;-87
2023/01/19 05:01:25;;;;;;;10.77;1.90;;;3.40;99.90;;;;;;5045986;28;20049;-87
2023/01/19 05:03:51;;;;;;;5.28;1.77;;;3.40;99.90;;;;;;5029578;28;20037;-86
2023/01/19 05:06:17;;;;;;;3.55;1.85;;;3.40;99.90;;;;;;5046358;28;20056;-87
2023/01/19 05:08:42;;;;;;;5.45;1.65;;;3.40;99.90;;;;;;5046493;28;20516;-86
2023/01/19 05:11:08;;;;;;;6.20;2.10;;;3.40;99.90;;;;;;5027583;28;20486;-87
2023/01/19 05:13:33;;;;;;;3.10;1.40;;;3.40;99.90;;;;;;5062895;28;20048;-87
2023/01/19 05:16:00;;;;;;;3.40;1.58;;;3.40;99.90;;;;;;5029221;28;20123;-87
2023/01/19 05:18:25;;;;;;;4.53;1.60;;;3.40;99.90;;;;;;5028793;28;20102;-87
2023/01/19 05:20:51;;;;;;;6.40;1.85;;;3.40;99.90;;;;;;5029329;28;20033;-87
2023/01/19 05:23:16;;;;;;;6.50;1.67;;;3.30;99.90;;;;;;5028710;28;20337;-87
2023/01/19 05:25:43;;;;;;;7.97;1.80;;;3.40;99.90;;;;;;5028736;28;20498;-87
2023/01/19 05:28:09;;;;;;;5.03;1.70;;;3.30;99.90;;;;;;5028106;28;20092;-87
2023/01/19 05:30:34;;;;;;;6.03;1.80;;;3.30;99.90;;;;;;5028833;28;20079;-87
2023/01/19 05:33:00;;;;;;;4.22;1.73;;;3.30;99.90;;;;;;5029344;28;20710;-87
2023/01/19 05:35:26;;;;;;;5.47;1.65;;;3.30;99.90;;;;;;5045897;28;20444;-87
2023/01/19 05:37:51;;;;;;;8.88;2.10;;;3.20;99.90;;;;;;5045374;28;20047;-87
2023/01/19 05:40:17;;;;;;;8.02;2.20;;;3.20;99.90;;;;;;5045360;28;20079;-87
2023/01/19 05:42:43;;;;;;;5.28;2.03;;;3.20;99.90;;;;;;5027171;28;20119;-87
2023/01/19 05:45:09;;;;;;;5.72;2.05;;;3.30;99.90;;;;;;5028638;28;20443;-87
2023/01/19 05:47:34;;;;;;;7.13;2.47;;;3.30;99.90;;;;;;5029223;28;20047;-87
2023/01/19 05:50:00;;;;;;;6.30;1.90;;;3.30;99.90;;;;;;5027183;28;20053;-87
2023/01/19 05:52:25;;;;;;;4.10;1.70;;;3.40;99.90;;;;;;5028277;28;20063;-88
2023/01/19 05:54:53;;;;;;;7.25;2.30;;;3.40;99.90;;;;;;5044631;28;20101;-87
2023/01/19 05:57:19;;;;;;;8.90;2.28;;;3.40;99.90;;;;;;5028676;28;20049;-87
2023/01/19 05:59:44;;;;;;;6.30;2.47;;;3.50;99.90;;;;;;5027952;28;20047;-87
2023/01/19 06:02:10;;;;;;;6.22;2.88;;;3.50;99.90;;;;;;5043953;28;20040;-87
2023/01/19 06:04:35;;;;;;;9.02;3.05;;;3.40;99.90;;;;;;5040913;28;20041;-86
2023/01/19 06:07:01;;;;;;;7.80;2.70;;;3.40;99.90;;;;;;5079044;28;20041;-87
2023/01/19 06:09:28;;;;;;;5.50;3.00;;;3.40;99.90;;;;;;5045466;28;20045;-87
2023/01/19 06:11:55;;;;;;;7.57;2.97;;;3.30;99.90;;;;;;5044942;28;20095;-88
2023/01/19 06:14:21;;;;;;;7.93;2.17;;;3.20;99.90;;;;;;5028353;28;20037;-87
2023/01/19 06:16:46;;;;;;;7.95;2.47;;;3.20;99.90;;;;;;5042765;28;20091;-87
2023/01/19 06:19:12;;;;;;;8.48;2.20;;;3.20;99.90;;;;;;5028451;28;20041;-87
2023/01/19 06:21:38;;;;;;;6.85;2.38;;;3.10;99.90;;;;;;5042788;28;20037;-88
2023/01/19 06:24:04;;;;;;;9.80;2.55;;;3.00;99.90;;;;;;5043268;28;20041;-87
2023/01/19 06:26:29;;;;;;;16.70;3.05;;;3.10;99.90;;;;;;5043971;28;20119;-87
2023/01/19 06:28:55;;;;;;;6.25;2.20;;;3.00;99.90;;;;;;5045421;28;20565;-87
2023/01/19 06:31:21;;;;;;;12.27;2.63;;;3.00;99.90;;;;;;5042194;28;20041;-87
2023/01/19 06:33:46;;;;;;;8.45;2.70;;;3.00;99.90;;;;;;5055873;28;20041;-87
2023/01/19 06:36:12;;;;;;;13.52;2.92;;;3.10;99.90;;;;;;5026721;28;20044;-87
2023/01/19 06:38:38;;;;;;;10.38;2.28;;;3.20;99.90;;;;;;5026179;28;20164;-87
2023/01/19 06:41:04;;;;;;;6.80;2.33;;;3.20;99.90;;;;;;5030573;28;20040;-87
2023/01/19 06:43:30;;;;;;;10.45;2.80;;;3.20;99.90;;;;;;5045231;28;20405;-87
2023/01/19 06:45:57;;;;;;;7.53;2.60;;;3.20;99.90;;;;;;5042419;28;20040;-88
2023/01/19 06:48:23;;;;;;;9.95;2.28;;;3.20;99.90;;;;;;5043546;28;20142;-87
2023/01/19 06:50:49;;;;;;;10.82;2.95;;;3.20;99.90;;;;;;5026371;28;20084;-87
2023/01/19 06:53:15;;;;;;;10.68;2.53;;;3.20;99.90;;;;;;5029313;28;20122;-87
2023/01/19 06:55:44;;;;;;;9.10;2.53;;;3.20;99.90;;;;;;5041712;28;20037;-87
2023/01/19 06:58:10;;;;;;;10.75;2.50;;;3.30;99.90;;;;;;5029321;28;20029;-87
2023/01/19 07:00:36;;;;;;;15.48;2.58;;;3.40;99.90;;;;;;5026692;28;20569;-87
2023/01/19 07:03:05;;;;;;;9.80;2.63;;;3.50;99.90;;;;;;5045688;28;20032;-87
2023/01/19 07:05:30;;;;;;;15.48;2.65;;;3.60;99.90;;;;;;5025532;28;20037;-87
2023/01/19 07:07:56;;;;;;;17.63;2.65;;;3.60;99.90;;;;;;5042547;28;20074;-87
2023/01/19 07:10:23;;;;;;;14.45;2.53;;;3.60;99.90;;;;;;5028364;28;20047;-87
2023/01/19 07:12:49;;;;;;;12.20;2.83;;;3.70;99.90;;;;;;5028449;28;20462;-87
2023/01/19 07:15:18;;;;;;;16.27;3.47;;;3.70;99.90;;;;;;5043149;28;20087;-87
2023/01/19 07:17:44;;;;;;;15.68;3.08;;;3.70;99.90;;;;;;5043040;28;20045;-87
2023/01/19 07:20:14;;;;;;;12.82;2.38;;;3.70;99.90;;;;;;5027597;28;20041;-87
2023/01/19 07:22:42;;;;;;;8.23;2.40;;;3.70;99.90;;;;;;5024299;28;20083;-87
2023/01/19 07:25:08;;;;;;;10.82;2.20;;;3.70;99.90;;;;;;5043563;28;20041;-87
2023/01/19 07:27:34;;;;;;;12.75;3.05;;;3.70;99.90;;;;;;5044465;28;20033;-87
2023/01/19 07:30:00;;;;;;;11.52;2.80;;;3.70;99.90;;;;;;5047281;28;20090;-87
2023/01/19 07:32:26;;;;;;;10.95;2.45;;;3.80;99.90;;;;;;5045815;28;20099;-87
2023/01/19 07:34:52;;;;;;;11.38;2.60;;;3.90;99.90;;;;;;5031817;28;20041;-86
2023/01/19 07:37:18;;;;;;;13.73;2.65;;;3.90;99.90;;;;;;5032699;28;20036;-87
2023/01/19 07:39:43;;;;;;;13.20;3.22;;;4.00;99.90;;;;;;5031362;28;20409;-87
2023/01/19 07:42:09;;;;;;;10.45;3.05;;;4.10;99.90;;;;;;5064347;28;20032;-86
2023/01/19 07:44:34;;;;;;;17.80;3.38;;;4.10;99.90;;;;;;5031955;28;20538;-86
2023/01/19 07:47:00;;;;;;;15.35;2.75;;;4.10;99.90;;;;;;5062198;28;20049;-87
2023/01/19 07:49:26;;;;;;;16.65;3.25;;;4.20;99.90;;;;;;5031003;28;20171;-87
2023/01/19 07:51:51;;;;;;;8.43;2.80;;;4.20;99.90;;;;;;5029135;28;20049;-87
2023/01/19 07:54:17;;;;;;;12.77;3.08;;;4.20;99.90;;;;;;5030906;28;20504;-87
2023/01/19 07:56:42;;;;;;;12.63;2.70;;;4.10;99.90;;;;;;5030348;28;20044;-87
2023/01/19 07:59:09;;;;;;;13.10;3.58;;;4.00;99.90;;;;;;5031763;28;20041;-87
2023/01/19 08:01:35;;;;;;;14.20;3.28;;;4.00;99.90;;;;;;5048086;28;20045;-87
2023/01/19 08:04:01;;;;;;;14.77;3.17;;;4.00;99.90;;;;;;5048245;28;20051;-87
2023/01/19 08:06:32;;;;;;;13.45;3.63;;;4.00;99.90;;;;;;5032253;28;20048;-87
2023/01/19 08:08:58;;;;;;;13.55;2.90;;;4.00;99.90;;;;;;5032336;28;20500;-87
2023/01/19 08:11:24;;;;;;;15.55;3.08;;;4.00;99.90;;;;;;5028131;28;20041;-87
2023/01/19 08:13:49;;;;;;;15.35;3.15;;;4.00;99.90;;;;;;5047019;28;20070;-87
2023/01/19 08:16:15;;;;;;;14.75;3.75;;;4.10;99.90;;;;;;5030824;28;20501;-87
2023/01/19 08:18:41;;;;;;;15.65;3.40;;;4.10;99.90;;;;;;5029607;28;20037;-87
2023/01/19 08:21:07;;;;;;;11.35;2.80;;;4.20;99.90;;;;;;5031554;28;20040;-87
2023/01/19 08:23:33;;;;;;;16.73;3.65;;;4.20;99.90;;;;;;5029802;28;20040;-87
2023/01/19 08:25:58;;;;;;;23.00;3.40;;;4.20;99.90;;;;;;5031936;28;20537;-87
2023/01/19 08:28:24;;;;;;;12.07;2.72;;;4.20;99.90;;;;;;5047738;28;20405;-87
2023/01/19 08:30:53;;;;;;;15.50;3.60;;;4.10;99.90;;;;;;5061539;28;20068;-87
2023/01/19 08:33:23;;;;;;;11.27;3.10;;;4.10;99.90;;;;;;5046974;28;20130;-87
2023/01/19 08:35:50;;;;;;;14.75;2.78;;;4.10;99.90;;;;;;5045333;28;20044;-87
2023/01/19 08:38:16;;;;;;;15.57;3.33;;;4.10;99.90;;;;;;5040903;28;20378;-87
2023/01/19 08:40:42;;;;;;;13.30;3.00;;;4.00;99.90;;;;;;5043792;28;20056;-87
2023/01/19 08:43:11;;;;;;;16.35;3.40;;;4.00;99.90;;;;;;5044420;28;20052;-87
2023/01/19 08:45:45;;;;;;;16.33;3.30;;;4.10;99.90;;;;;;5043641;28;20056;-87
2023/01/19 08:48:12;;;;;;;17.30;3.70;;;4.20;99.90;;;;;;5045739;28;20044;-87
2023/01/19 08:50:38;;;;;;;16.92;3.30;;;4.30;99.90;;;;;;5028948;28;20657;-87
2023/01/19 08:53:05;;;;;;;17.85;3.50;;;4.40;99.90;;;;;;5029725;28;20047;-86
2023/01/19 08:55:34;;;;;;;10.55;2.75;;;4.30;99.90;;;;;;5042707;28;20116;-87
2023/01/19 08:58:02;;;;;;;17.67;3.25;;;4.20;99.90;;;;;;5029464;28;20489;-87
2023/01/19 09:00:30;;;;;;;18.33;3.42;;;4.10;99.90;;;;;;5044552;28;20048;-87
2023/01/19 09:02:56;;;;;;;16.73;3.10;;;4.10;99.90;;;;;;5043949;28;20123;-87
2023/01/19 09:05:22;;;;;;;16.90;3.42;;;4.00;99.90;;;;;;5029001;28;20049;-87
2023/01/19 09:07:48;;;;;;;19.55;3.97;;;4.00;99.90;;;;;;5028147;28;20265;-86
2023/01/19 09:10:15;;;;;;;16.85;3.67;;;3.90;99.90;;;;;;5044514;28;20570;-86
2023/01/19 09:12:42;;;;;;;18.05;3.55;;;3.90;99.90;;;;;;5046436;28;20390;-86
2023/01/19 09:15:09;;;;;;;15.65;4.20;;;3.90;99.90;;;;;;5028896;28;20033;-87
2023/01/19 09:17:35;;;;;;;12.95;2.95;;;3.90;99.90;;;;;;5029894;28;20045;-87
2023/01/19 09:20:02;;;;;;;15.00;2.75;;;3.90;99.90;;;;;;5026572;28;20033;-86
2023/01/19 09:22:27;;;;;;;13.75;3.20;;;3.90;99.90;;;;;;5042863;28;20099;-87
2023/01/19 09:24:53;;;;;;;12.63;2.90;;;3.90;99.90;;;;;;5045758;28;20033;-87
2023/01/19 09:27:18;;;;;;;19.25;3.65;;;3.80;99.90;;;;;;5028733;28;20106;-86
2023/01/19 09:29:51;;;;;;;12.50;3.10;;;3.90;99.90;;;;;;5029073;28;20131;-86
2023/01/19 09:32:18;;;;;;;15.05;3.20;;;3.90;99.90;;;;;;5045449;28;20454;-86
2023/01/19 09:34:44;;;;;;;16.13;3.10;;;4.10;99.90;;;;;;5029251;28;20061;-85
2023/01/19 09:37:09;;;;;;;16.80;3.55;;;4.10;99.90;;;;;;5042904;28;20032;-86
2023/01/19 09:39:35;;;;;;;14.52;3.25;;;4.20;99.90;;;;;;5028732;28;20033;-85
2023/01/19 09:47:18;;;;;;;20.95;3.15;;;4.60;99.90;;;;;;5032719;28;20053;-85
2023/01/19 09:49:50;;;;;;;9.40;2.60;;;4.70;99.90;;;;;;5033541;28;20045;-85
2023/01/19 09:52:17;;;;;;;10.02;2.95;;;4.70;99.90;;;;;;5022359;28;20075;-84
2023/01/19 09:54:47;;;;;;;12.60;3.28;;;4.80;99.90;;;;;;5021551;28;20048;-85
2023/01/19 09:57:13;;;;;;;11.65;2.97;;;4.90;99.90;;;;;;5020292;28;20037;-84
2023/01/19 09:59:42;;;;;;;6.75;2.42;;;5.00;99.90;;;;;;5033743;28;20048;-85
2023/01/19 10:02:36;;;;;;;14.88;3.30;;;5.20;99.90;;;;;;5016895;28;20063;-85
2023/01/19 10:05:01;;;;;;;10.50;2.63;;;5.20;99.90;;;;;;5015707;28;20045;-84
2023/01/19 10:07:56;;;;;;;8.88;2.30;;;5.20;99.90;;;;;;5021127;28;20049;-84
2023/01/19 10:10:27;;;;;;;;;;;5.20;99.90;;;;;;5034133;28;20407;-84
2023/01/19 10:13:10;;;;;;;10.95;2.47;;;5.20;99.90;;;;;;5035799;28;19925;-84
2023/01/19 10:15:58;;;;;;;12.25;2.95;;;5.10;99.90;;;;;;5027537;28;20040;-84
2023/01/19 10:18:42;;;;;;;11.45;2.80;;;5.20;99.90;;;;;;5024477;28;20071;-83
2023/01/19 10:21:09;;;;;;;7.70;2.15;;;5.30;99.90;;;;;;5016156;28;20597;-83
2023/01/19 10:23:39;;;;;;;9.82;2.55;;;5.60;99.90;;;;;;5035413;28;20040;-84
2023/01/19 10:26:15;;;;;;;10.27;2.20;;;5.70;99.90;;;;;;5029516;28;20037;-84
2023/01/19 10:28:42;;;;;;;12.25;2.75;;;5.80;99.90;;;;;;5020025;28;20052;-84
2023/01/19 10:31:08;;;;;;;9.18;2.53;;;6.00;99.90;;;;;;5018052;28;20084;-84
2023/01/19 10:33:35;;;;;;;11.85;3.25;;;6.20;99.90;;;;;;5030296;28;20049;-83
2023/01/19 10:36:19;;;;;;;11.02;2.47;;;6.20;99.90;;;;;;5029856;28;20040;-84
2023/01/19 10:38:46;;;;;;;12.45;3.17;;;6.10;99.90;;;;;;5030260;28;20076;-84
2023/01/19 10:41:30;;;;;;;11.95;2.40;;;5.90;99.90;;;;;;5029153;28;20446;-84
2023/01/19 10:44:01;;;;;;;15.15;2.47;;;5.70;99.90;;;;;;5021209;28;20446;-83
2023/01/19 10:46:36;;;;;;;9.98;2.50;;;5.70;99.90;;;;;;5018323;28;20133;-84
2023/01/19 10:49:02;;;;;;;11.95;2.65;;;5.70;99.90;;;;;;5030003;28;20077;-83
2023/01/19 10:51:28;;;;;;;8.57;2.22;;;5.80;99.90;;;;;;5036207;28;20044;-83
2023/01/19 10:53:58;;;;;;;11.15;2.53;;;5.80;99.90;;;;;;5014882;28;20044;-83
2023/01/19 10:56:30;;;;;;;8.27;2.30;;;5.90;99.90;;;;;;5036238;28;20041;-83
2023/01/19 10:58:58;;;;;;;6.57;2.22;;;6.00;99.90;;;;;;5018969;28;20045;-83
2023/01/19 11:01:29;;;;;;;12.25;2.78;;;6.10;99.90;;;;;;5034813;28;20033;-83
2023/01/19 11:04:04;;;;;;;11.77;2.55;;;6.20;99.90;;;;;;5037918;28;20469;-82
2023/01/19 11:06:31;;;;;;;15.85;3.05;;;6.30;99.90;;;;;;5015647;28;20041;-83
2023/01/19 11:09:29;;;;;;;9.68;2.83;;;6.40;99.90;;;;;;5022134;28;20043;-82
2023/01/19 11:11:55;;;;;;;9.63;3.35;;;6.60;99.90;;;;;;4944887;28;20051;-82
2023/01/19 11:14:22;;;;;;;10.70;2.47;;;6.80;99.90;;;;;;4930328;28;20042;-83
2023/01/19 11:16:53;;;;;;;11.85;2.28;;;7.00;99.90;;;;;;4954195;28;20054;-82
2023/01/19 11:19:29;;;;;;;8.80;2.60;;;7.00;99.90;;;;;;4937374;28;20050;-83
2023/01/19 11:22:20;;;;;;;11.88;2.75;;;7.00;99.90;;;;;;4952068;28;20050;-82
2023/01/19 11:24:46;;;;;;;13.63;2.80;;;7.00;99.90;;;;;;4947768;28;20647;-82
2023/01/19 11:27:16;;;;;;;14.32;3.08;;;6.90;99.90;;;;;;4927021;28;20051;-82
2023/01/19 11:29:48;;;;;;;11.38;2.38;;;6.90;99.90;;;;;;4939451;28;20074;-82
2023/01/19 11:32:21;;;;;;;10.35;2.33;;;6.90;99.90;;;;;;4948087;28;20081;-82
2023/01/19 11:34:47;;;;;;;6.78;2.22;;;6.90;99.90;;;;;;4934385;28;20054;-82
2023/01/19 11:37:15;;;;;;;8.25;2.10;;;7.00;99.90;;;;;;4934427;28;20034;-82
2023/01/19 11:39:53;;;;;;;12.40;3.10;;;7.10;99.90;;;;;;4934628;28;20043;-82
2023/01/19 11:42:20;;;;;;;8.27;2.00;;;7.10;99.90;;;;;;4950238;28;20050;-83
2023/01/19 11:44:57;;;;;;;7.53;2.20;;;7.30;99.90;;;;;;4944244;28;20038;-83
2023/01/19 11:47:29;;;;;;;9.60;2.00;;;7.30;99.90;;;;;;4989172;28;20049;-82
2023/01/19 11:50:04;;;;;;;8.13;1.95;;;7.30;99.90;;;;;;5034983;28;20443;-82
2023/01/19 11:52:48;;;;;;;9.10;1.80;;;7.30;99.90;;;;;;5015530;28;20088;-82
2023/01/19 11:55:37;;;;;;;7.53;2.17;;;7.30;99.90;;;;;;5031739;28;20047;-82
2023/01/19 11:58:04;;;;;;;10.38;2.20;;;7.30;99.90;;;;;;5019684;28;20042;-82
2023/01/19 12:00:41;;;;;;;9.02;1.77;;;7.40;99.90;;;;;;5038463;28;20043;-82
2023/01/19 12:03:31;;;;;;;8.75;2.10;;;7.40;99.90;;;;;;5021895;28;20419;-82
2023/01/19 12:06:05;;;;;;;8.45;2.20;;;7.40;99.90;;;;;;5032867;28;20037;-82
2023/01/19 12:08:35;;;;;;;7.93;2.22;;;7.30;99.90;;;;;;5037289;28;20084;-83
2023/01/19 12:11:03;;;;;;;5.95;1.80;;;7.40;99.90;;;;;;5033545;28;20049;-82
2023/01/19 12:13:31;;;;;;;7.32;2.22;;;7.40;99.90;;;;;;5037404;28;20044;-82
2023/01/19 12:16:11;;;;;;;6.40;2.05;;;7.50;99.90;;;;;;5020897;28;20040;-82
2023/01/19 12:18:46;;;;;;;5.88;1.70;;;7.60;99.90;;;;;;5022964;28;20052;-82
2023/01/19 12:21:12;;;;;;;7.57;2.55;;;7.50;99.90;;;;;;5023015;28;20048;-83
2023/01/19 12:23:49;;;;;;;8.80;2.40;;;7.30;99.90;;;;;;5033195;28;20420;-83
2023/01/19 12:26:23;;;;;;;5.65;1.70;;;7.00;99.90;;;;;;5024828;28;20052;-82
2023/01/19 12:28:51;;;;;;;7.07;1.80;;;6.90;99.90;;;;;;5034138;28;20045;-82
2023/01/19 12:31:19;;;;;;;4.63;1.75;;;6.90;99.90;;;;;;5025502;28;20040;-82
2023/01/19 12:33:45;;;;;;;3.78;1.60;;;7.00;99.90;;;;;;5037146;28;20055;-82
2023/01/19 12:36:29;;;;;;;3.13;1.65;;;7.20;99.90;;;;;;5021621;28;21092;-82
2023/01/19 12:39:00;;;;;;;8.13;1.77;;;7.40;99.90;;;;;;5033882;28;20056;-83
2023/01/19 12:41:37;;;;;;;6.55;1.75;;;7.50;99.90;;;;;;5019727;28;20056;-82
2023/01/19 12:44:15;;;;;;;7.72;1.92;;;7.40;99.90;;;;;;5017622;28;20032;-82
2023/01/19 12:46:44;;;;;;;5.13;1.70;;;7.30;99.90;;;;;;5024167;28;20053;-82
2023/01/19 12:49:10;;;;;;;7.43;1.95;;;7.10;99.90;;;;;;5038665;28;20045;-82
2023/01/19 12:51:36;;;;;;;4.50;2.00;;;6.80;99.90;;;;;;5035172;28;20072;-82
2023/01/19 12:54:06;;;;;;;6.50;1.60;;;6.70;99.90;;;;;;5031958;28;20624;-82
2023/01/19 12:56:35;;;;;;;4.13;2.22;;;6.50;99.90;;;;;;5038627;28;20139;-82
2023/01/19 12:59:02;;;;;;;7.82;2.13;;;6.40;99.90;;;;;;5017851;28;20030;-81
2023/01/19 13:01:29;;;;;;;5.97;1.75;;;6.40;99.90;;;;;;5023360;28;20049;-82
2023/01/19 13:04:34;;;;;;;8.52;2.45;;;6.40;99.90;;;;;;5036028;28;20051;-83
2023/01/19 13:07:04;;;;;;;3.95;1.90;;;6.50;99.90;;;;;;5015781;28;20050;-82
2023/01/19 13:09:32;;;;;;;12.18;2.13;;;6.50;99.90;;;;;;5021523;28;20060;-82
2023/01/19 13:12:13;;;;;;;4.90;2.08;;;6.60;99.90;;;;;;5031718;28;20443;-82
2023/01/19 13:14:42;;;;;;;11.77;2.13;;;6.50;99.90;;;;;;5020120;28;20045;-82
2023/01/19 13:17:25;;;;;;;5.88;2.08;;;6.50;99.90;;;;;;5020338;28;20045;-82